sensor_id;sensor_type;location;lat;lon;timestamp;temperature;humidity
39655;DHT22;25336;59.944;11.010;2022-07-01T00:01:07;22.30;52.40
39655;DHT22;25336;59.944;11.010;2022-07-01T00:03:32;22.30;52.60
39655;DHT22;25336;59.944;11.010;2022-07-01T00:05:59;22.30;52.80
39655;DHT22;25336;59.944;11.010;2022-07-01T00:08:25;22.30;53.00
39655;DHT22;25336;59.944;11.010;2022-07-01T00:10:50;22.30;53.10
39655;DHT22;25336;59.944;11.010;2022-07-01T00:13:16;22.30;53.20
39655;DHT22;25336;59.944;11.010;2022-07-01T00:15:42;22.40;53.30
39655;DHT22;25336;59.944;11.010;2022-07-01T00:18:07;22.40;53.50
39655;DHT22;25336;59.944;11.010;2022-07-01T00:20:33;22.30;53.50
39655;DHT22;25336;59.944;11.010;2022-07-01T00:22:59;22.30;53.50
39655;DHT22;25336;59.944;11.010;2022-07-01T00:25:24;22.30;53.30
39655;DHT22;25336;59.944;11.010;2022-07-01T00:27:50;22.30;53.40
39655;DHT22;25336;59.944;11.010;2022-07-01T00:30:15;22.30;53.50
39655;DHT22;25336;59.944;11.010;2022-07-01T00:32:41;22.30;53.60
39655;DHT22;25336;59.944;11.010;2022-07-01T00:35:07;22.30;53.70
39655;DHT22;25336;59.944;11.010;2022-07-01T00:37:34;22.30;53.80
39655;DHT22;25336;59.944;11.010;2022-07-01T00:40:00;22.20;53.80
39655;DHT22;25336;59.944;11.010;2022-07-01T00:42:26;22.20;53.90
39655;DHT22;25336;59.944;11.010;2022-07-01T00:44:51;22.20;54.10
39655;DHT22;25336;59.944;11.010;2022-07-01T00:47:17;22.20;54.10
39655;DHT22;25336;59.944;11.010;2022-07-01T00:49:43;22.20;54.30
39655;DHT22;25336;59.944;11.010;2022-07-01T00:52:09;21.90;54.20
39655;DHT22;25336;59.944;11.010;2022-07-01T00:54:36;22.10;54.40
39655;DHT22;25336;59.944;11.010;2022-07-01T00:57:07;22.10;54.60
39655;DHT22;25336;59.944;11.010;2022-07-01T00:59:33;22.10;54.80
39655;DHT22;25336;59.944;11.010;2022-07-01T01:02:00;22.10;54.50
39655;DHT22;25336;59.944;11.010;2022-07-01T01:04:26;22.10;54.70
39655;DHT22;25336;59.944;11.010;2022-07-01T01:06:51;22.10;54.70
39655;DHT22;25336;59.944;11.010;2022-07-01T01:09:17;22.10;54.80
39655;DHT22;25336;59.944;11.010;2022-07-01T01:11:43;22.10;54.90
39655;DHT22;25336;59.944;11.010;2022-07-01T01:14:08;22.00;54.90
39655;DHT22;25336;59.944;11.010;2022-07-01T01:16:34;21.20;54.60
39655;DHT22;25336;59.944;11.010;2022-07-01T01:19:04;22.00;55.10
39655;DHT22;25336;59.944;11.010;2022-07-01T01:21:30;21.90;55.40
39655;DHT22;25336;59.944;11.010;2022-07-01T01:23:57;21.90;55.30
39655;DHT22;25336;59.944;11.010;2022-07-01T01:26:25;21.90;55.50
39655;DHT22;25336;59.944;11.010;2022-07-01T01:28:52;21.90;55.70
39655;DHT22;25336;59.944;11.010;2022-07-01T01:31:26;21.80;55.70
39655;DHT22;25336;59.944;11.010;2022-07-01T01:33:54;21.80;56.40
39655;DHT22;25336;59.944;11.010;2022-07-01T01:36:19;21.80;55.90
39655;DHT22;25336;59.944;11.010;2022-07-01T01:38:45;21.80;56.00
39655;DHT22;25336;59.944;11.010;2022-07-01T01:41:11;21.80;56.10
39655;DHT22;25336;59.944;11.010;2022-07-01T01:43:36;21.80;56.30
39655;DHT22;25336;59.944;11.010;2022-07-01T01:46:03;21.80;56.30
39655;DHT22;25336;59.944;11.010;2022-07-01T01:48:30;21.80;56.50
39655;DHT22;25336;59.944;11.010;2022-07-01T01:50:56;21.90;56.70
39655;DHT22;25336;59.944;11.010;2022-07-01T01:53:22;21.90;56.70
39655;DHT22;25336;59.944;11.010;2022-07-01T01:55:47;21.90;56.90
39655;DHT22;25336;59.944;11.010;2022-07-01T01:58:13;21.80;56.90
39655;DHT22;25336;59.944;11.010;2022-07-01T02:00:38;21.90;57.00
39655;DHT22;25336;59.944;11.010;2022-07-01T02:03:04;21.90;57.70
39655;DHT22;25336;59.944;11.010;2022-07-01T02:05:30;21.90;57.20
39655;DHT22;25336;59.944;11.010;2022-07-01T02:07:56;21.90;57.20
39655;DHT22;25336;59.944;11.010;2022-07-01T02:10:22;21.90;57.30
39655;DHT22;25336;59.944;11.010;2022-07-01T02:12:47;21.90;57.50
39655;DHT22;25336;59.944;11.010;2022-07-01T02:15:13;21.90;57.40
39655;DHT22;25336;59.944;11.010;2022-07-01T02:17:38;21.90;57.40
39655;DHT22;25336;59.944;11.010;2022-07-01T02:20:04;21.90;57.50
39655;DHT22;25336;59.944;11.010;2022-07-01T02:22:30;21.90;57.50
39655;DHT22;25336;59.944;11.010;2022-07-01T02:24:56;21.90;57.50
39655;DHT22;25336;59.944;11.010;2022-07-01T02:27:21;21.90;57.70
39655;DHT22;25336;59.944;11.010;2022-07-01T02:29:47;21.90;57.80
39655;DHT22;25336;59.944;11.010;2022-07-01T02:32:13;21.90;58.00
39655;DHT22;25336;59.944;11.010;2022-07-01T02:34:38;21.90;58.10
39655;DHT22;25336;59.944;11.010;2022-07-01T02:37:04;22.60;58.40
39655;DHT22;25336;59.944;11.010;2022-07-01T02:39:30;21.90;58.10
39655;DHT22;25336;59.944;11.010;2022-07-01T02:41:55;21.90;58.20
39655;DHT22;25336;59.944;11.010;2022-07-01T02:44:40;21.80;58.30
39655;DHT22;25336;59.944;11.010;2022-07-01T02:47:06;21.80;58.40
39655;DHT22;25336;59.944;11.010;2022-07-01T02:49:31;21.80;58.50
39655;DHT22;25336;59.944;11.010;2022-07-01T02:51:57;21.80;58.60
39655;DHT22;25336;59.944;11.010;2022-07-01T02:54:22;21.80;58.70
39655;DHT22;25336;59.944;11.010;2022-07-01T02:56:48;21.80;59.00
39655;DHT22;25336;59.944;11.010;2022-07-01T02:59:13;21.80;59.10
39655;DHT22;25336;59.944;11.010;2022-07-01T03:01:39;21.80;60.00
39655;DHT22;25336;59.944;11.010;2022-07-01T03:04:05;21.80;59.30
39655;DHT22;25336;59.944;11.010;2022-07-01T03:06:30;21.30;59.30
39655;DHT22;25336;59.944;11.010;2022-07-01T03:08:56;21.80;59.70
39655;DHT22;25336;59.944;11.010;2022-07-01T03:11:23;21.80;59.80
39655;DHT22;25336;59.944;11.010;2022-07-01T03:13:49;21.90;60.00
39655;DHT22;25336;59.944;11.010;2022-07-01T03:16:14;21.90;60.20
39655;DHT22;25336;59.944;11.010;2022-07-01T03:18:40;21.90;60.20
39655;DHT22;25336;59.944;11.010;2022-07-01T03:21:06;21.90;60.40
39655;DHT22;25336;59.944;11.010;2022-07-01T03:23:31;21.90;61.30
39655;DHT22;25336;59.944;11.010;2022-07-01T03:25:57;22.00;60.60
39655;DHT22;25336;59.944;11.010;2022-07-01T03:28:22;22.00;60.70
39655;DHT22;25336;59.944;11.010;2022-07-01T03:30:48;22.00;60.70
39655;DHT22;25336;59.944;11.010;2022-07-01T03:33:13;22.10;60.90
39655;DHT22;25336;59.944;11.010;2022-07-01T03:35:39;22.10;61.00
39655;DHT22;25336;59.944;11.010;2022-07-01T03:38:06;22.20;61.10
39655;DHT22;25336;59.944;11.010;2022-07-01T03:40:33;22.20;61.10
39655;DHT22;25336;59.944;11.010;2022-07-01T03:42:59;22.30;61.10
39655;DHT22;25336;59.944;11.010;2022-07-01T03:45:25;22.30;61.10
39655;DHT22;25336;59.944;11.010;2022-07-01T03:47:51;22.30;61.10
39655;DHT22;25336;59.944;11.010;2022-07-01T03:50:17;22.40;61.20
39655;DHT22;25336;59.944;11.010;2022-07-01T03:52:45;22.40;61.30
39655;DHT22;25336;59.944;11.010;2022-07-01T03:55:12;22.40;61.30
39655;DHT22;25336;59.944;11.010;2022-07-01T03:57:38;22.50;61.40
39655;DHT22;25336;59.944;11.010;2022-07-01T04:00:05;22.50;61.50
39655;DHT22;25336;59.944;11.010;2022-07-01T04:02:31;22.50;61.60
39655;DHT22;25336;59.944;11.010;2022-07-01T04:04:57;22.60;61.60
39655;DHT22;25336;59.944;11.010;2022-07-01T04:07:23;22.50;61.50
39655;DHT22;25336;59.944;11.010;2022-07-01T04:09:49;22.60;61.70
39655;DHT22;25336;59.944;11.010;2022-07-01T04:12:16;22.60;61.90
39655;DHT22;25336;59.944;11.010;2022-07-01T04:14:42;22.60;62.10
39655;DHT22;25336;59.944;11.010;2022-07-01T04:17:07;22.60;62.00
39655;DHT22;25336;59.944;11.010;2022-07-01T04:19:33;22.60;62.10
39655;DHT22;25336;59.944;11.010;2022-07-01T04:21:59;22.60;62.40
39655;DHT22;25336;59.944;11.010;2022-07-01T04:24:44;22.70;62.60
39655;DHT22;25336;59.944;11.010;2022-07-01T04:27:10;22.60;62.50
39655;DHT22;25336;59.944;11.010;2022-07-01T04:29:36;22.60;62.80
39655;DHT22;25336;59.944;11.010;2022-07-01T04:32:02;22.70;63.10
39655;DHT22;25336;59.944;11.010;2022-07-01T04:34:27;22.70;63.30
39655;DHT22;25336;59.944;11.010;2022-07-01T04:36:53;22.70;63.40
39655;DHT22;25336;59.944;11.010;2022-07-01T04:39:19;22.70;64.40
39655;DHT22;25336;59.944;11.010;2022-07-01T04:41:44;22.70;63.70
39655;DHT22;25336;59.944;11.010;2022-07-01T04:44:33;22.70;63.80
39655;DHT22;25336;59.944;11.010;2022-07-01T04:46:59;22.70;64.20
39655;DHT22;25336;59.944;11.010;2022-07-01T04:49:26;22.70;63.90
39655;DHT22;25336;59.944;11.010;2022-07-01T04:51:52;22.70;63.90
39655;DHT22;25336;59.944;11.010;2022-07-01T04:54:18;22.60;64.70
39655;DHT22;25336;59.944;11.010;2022-07-01T04:56:44;22.60;64.10
39655;DHT22;25336;59.944;11.010;2022-07-01T04:59:10;22.60;64.50
39655;DHT22;25336;59.944;11.010;2022-07-01T05:01:36;22.60;64.20
39655;DHT22;25336;59.944;11.010;2022-07-01T05:04:01;22.60;64.30
39655;DHT22;25336;59.944;11.010;2022-07-01T05:06:29;22.60;64.50
39655;DHT22;25336;59.944;11.010;2022-07-01T05:08:55;22.60;64.60
39655;DHT22;25336;59.944;11.010;2022-07-01T05:11:21;22.60;64.60
39655;DHT22;25336;59.944;11.010;2022-07-01T05:13:47;22.60;64.90
39655;DHT22;25336;59.944;11.010;2022-07-01T05:16:12;21.70;64.50
39655;DHT22;25336;59.944;11.010;2022-07-01T05:18:38;22.60;65.10
39655;DHT22;25336;59.944;11.010;2022-07-01T05:21:23;22.70;65.40
39655;DHT22;25336;59.944;11.010;2022-07-01T05:24:07;22.70;65.50
39655;DHT22;25336;59.944;11.010;2022-07-01T05:26:33;22.70;65.60
39655;DHT22;25336;59.944;11.010;2022-07-01T05:28:59;22.70;65.80
39655;DHT22;25336;59.944;11.010;2022-07-01T05:31:24;22.70;65.90
39655;DHT22;25336;59.944;11.010;2022-07-01T05:33:50;22.70;66.10
39655;DHT22;25336;59.944;11.010;2022-07-01T05:36:16;22.70;66.20
39655;DHT22;25336;59.944;11.010;2022-07-01T05:38:41;22.70;66.30
39655;DHT22;25336;59.944;11.010;2022-07-01T05:41:07;22.70;66.50
39655;DHT22;25336;59.944;11.010;2022-07-01T05:43:33;22.80;66.60
39655;DHT22;25336;59.944;11.010;2022-07-01T05:45:59;22.70;67.50
39655;DHT22;25336;59.944;11.010;2022-07-01T05:48:25;22.70;66.70
39655;DHT22;25336;59.944;11.010;2022-07-01T05:50:51;22.70;66.90
39655;DHT22;25336;59.944;11.010;2022-07-01T05:53:18;22.70;67.20
39655;DHT22;25336;59.944;11.010;2022-07-01T05:55:43;22.70;67.40
39655;DHT22;25336;59.944;11.010;2022-07-01T05:58:13;22.70;67.40
39655;DHT22;25336;59.944;11.010;2022-07-01T06:00:39;22.70;68.40
39655;DHT22;25336;59.944;11.010;2022-07-01T06:03:08;22.70;68.00
39655;DHT22;25336;59.944;11.010;2022-07-01T06:05:34;22.70;67.80
39655;DHT22;25336;59.944;11.010;2022-07-01T06:08:00;22.60;67.80
39655;DHT22;25336;59.944;11.010;2022-07-01T06:10:26;22.60;68.20
39655;DHT22;25336;59.944;11.010;2022-07-01T06:12:51;22.60;68.70
39655;DHT22;25336;59.944;11.010;2022-07-01T06:15:17;22.60;69.00
39655;DHT22;25336;59.944;11.010;2022-07-01T06:17:43;22.60;69.10
39655;DHT22;25336;59.944;11.010;2022-07-01T06:20:08;22.60;69.30
39655;DHT22;25336;59.944;11.010;2022-07-01T06:22:35;22.60;69.30
39655;DHT22;25336;59.944;11.010;2022-07-01T06:25:01;22.70;69.40
39655;DHT22;25336;59.944;11.010;2022-07-01T06:27:27;22.70;69.40
39655;DHT22;25336;59.944;11.010;2022-07-01T06:29:52;22.70;69.50
39655;DHT22;25336;59.944;11.010;2022-07-01T06:32:18;22.70;69.60
39655;DHT22;25336;59.944;11.010;2022-07-01T06:34:44;22.70;70.00
39655;DHT22;25336;59.944;11.010;2022-07-01T06:37:10;22.80;70.00
39655;DHT22;25336;59.944;11.010;2022-07-01T06:39:36;22.80;70.00
39655;DHT22;25336;59.944;11.010;2022-07-01T06:42:01;22.80;70.00
39655;DHT22;25336;59.944;11.010;2022-07-01T06:44:27;22.90;69.80
39655;DHT22;25336;59.944;11.010;2022-07-01T06:46:52;22.90;70.10
39655;DHT22;25336;59.944;11.010;2022-07-01T06:49:18;23.00;70.00
39655;DHT22;25336;59.944;11.010;2022-07-01T06:51:44;23.00;70.10
39655;DHT22;25336;59.944;11.010;2022-07-01T06:54:10;23.10;70.00
39655;DHT22;25336;59.944;11.010;2022-07-01T06:56:35;23.10;69.90
39655;DHT22;25336;59.944;11.010;2022-07-01T06:59:01;23.10;69.90
39655;DHT22;25336;59.944;11.010;2022-07-01T07:01:27;23.10;70.00
39655;DHT22;25336;59.944;11.010;2022-07-01T07:03:53;23.20;70.20
39655;DHT22;25336;59.944;11.010;2022-07-01T07:06:19;23.20;70.20
39655;DHT22;25336;59.944;11.010;2022-07-01T07:08:45;23.20;70.20
39655;DHT22;25336;59.944;11.010;2022-07-01T07:11:11;23.20;70.30
39655;DHT22;25336;59.944;11.010;2022-07-01T07:13:37;23.20;70.30
39655;DHT22;25336;59.944;11.010;2022-07-01T07:16:03;23.20;70.00
39655;DHT22;25336;59.944;11.010;2022-07-01T07:18:29;23.20;70.00
39655;DHT22;25336;59.944;11.010;2022-07-01T07:20:54;23.20;70.10
39655;DHT22;25336;59.944;11.010;2022-07-01T07:23:20;23.20;70.20
39655;DHT22;25336;59.944;11.010;2022-07-01T07:25:46;23.20;70.20
39655;DHT22;25336;59.944;11.010;2022-07-01T07:28:12;23.20;70.30
39655;DHT22;25336;59.944;11.010;2022-07-01T07:30:38;23.20;70.60
39655;DHT22;25336;59.944;11.010;2022-07-01T07:33:04;23.20;70.70
39655;DHT22;25336;59.944;11.010;2022-07-01T07:35:29;22.50;70.40
39655;DHT22;25336;59.944;11.010;2022-07-01T07:37:55;23.20;70.90
39655;DHT22;25336;59.944;11.010;2022-07-01T07:40:21;23.20;71.10
39655;DHT22;25336;59.944;11.010;2022-07-01T07:42:48;23.30;71.20
39655;DHT22;25336;59.944;11.010;2022-07-01T07:45:14;23.30;71.20
39655;DHT22;25336;59.944;11.010;2022-07-01T07:47:46;23.30;71.80
39655;DHT22;25336;59.944;11.010;2022-07-01T07:50:12;23.30;72.20
39655;DHT22;25336;59.944;11.010;2022-07-01T07:52:39;23.30;72.10
39655;DHT22;25336;59.944;11.010;2022-07-01T07:55:06;23.40;72.60
39655;DHT22;25336;59.944;11.010;2022-07-01T07:57:32;23.50;72.50
39655;DHT22;25336;59.944;11.010;2022-07-01T07:59:59;24.40;73.00
39655;DHT22;25336;59.944;11.010;2022-07-01T08:02:25;23.70;72.00
39655;DHT22;25336;59.944;11.010;2022-07-01T08:04:50;23.80;72.20
39655;DHT22;25336;59.944;11.010;2022-07-01T08:07:16;23.90;71.70
39655;DHT22;25336;59.944;11.010;2022-07-01T08:09:42;24.00;71.70
39655;DHT22;25336;59.944;11.010;2022-07-01T08:12:12;24.10;71.70
39655;DHT22;25336;59.944;11.010;2022-07-01T08:14:38;24.30;71.80
39655;DHT22;25336;59.944;11.010;2022-07-01T08:17:04;24.40;71.40
39655;DHT22;25336;59.944;11.010;2022-07-01T08:19:29;24.50;71.20
39655;DHT22;25336;59.944;11.010;2022-07-01T08:21:55;24.70;70.70
39655;DHT22;25336;59.944;11.010;2022-07-01T08:24:20;24.80;70.10
39655;DHT22;25336;59.944;11.010;2022-07-01T08:26:46;24.90;69.60
39655;DHT22;25336;59.944;11.010;2022-07-01T08:29:12;25.00;69.30
39655;DHT22;25336;59.944;11.010;2022-07-01T08:31:37;25.10;68.50
39655;DHT22;25336;59.944;11.010;2022-07-01T08:34:03;25.20;68.10
39655;DHT22;25336;59.944;11.010;2022-07-01T08:36:28;25.30;68.30
39655;DHT22;25336;59.944;11.010;2022-07-01T08:38:54;25.40;68.80
39655;DHT22;25336;59.944;11.010;2022-07-01T08:41:20;25.50;68.30
39655;DHT22;25336;59.944;11.010;2022-07-01T08:43:46;25.60;67.80
39655;DHT22;25336;59.944;11.010;2022-07-01T08:46:11;25.70;67.90
39655;DHT22;25336;59.944;11.010;2022-07-01T08:48:42;25.80;67.40
39655;DHT22;25336;59.944;11.010;2022-07-01T08:51:07;25.90;66.50
39655;DHT22;25336;59.944;11.010;2022-07-01T08:53:33;26.10;66.20
39655;DHT22;25336;59.944;11.010;2022-07-01T08:55:59;26.10;66.00
39655;DHT22;25336;59.944;11.010;2022-07-01T08:58:43;26.30;65.50
39655;DHT22;25336;59.944;11.010;2022-07-01T09:01:22;26.40;66.00
39655;DHT22;25336;59.944;11.010;2022-07-01T09:03:49;26.50;64.40
39655;DHT22;25336;59.944;11.010;2022-07-01T09:08:45;26.70;63.80
39655;DHT22;25336;59.944;11.010;2022-07-01T09:11:15;26.10;63.10
39655;DHT22;25336;59.944;11.010;2022-07-01T09:13:42;26.80;63.00
39655;DHT22;25336;59.944;11.010;2022-07-01T09:16:16;26.90;63.50
39655;DHT22;25336;59.944;11.010;2022-07-01T09:18:59;26.90;62.70
39655;DHT22;25336;59.944;11.010;2022-07-01T09:21:29;27.00;61.70
39655;DHT22;25336;59.944;11.010;2022-07-01T09:23:55;27.10;62.00
39655;DHT22;25336;59.944;11.010;2022-07-01T09:26:21;27.20;62.10
39655;DHT22;25336;59.944;11.010;2022-07-01T09:28:57;27.30;61.70
39655;DHT22;25336;59.944;11.010;2022-07-01T09:31:36;27.40;60.60
39655;DHT22;25336;59.944;11.010;2022-07-01T09:34:12;27.40;60.20
39655;DHT22;25336;59.944;11.010;2022-07-01T09:36:38;27.40;60.10
39655;DHT22;25336;59.944;11.010;2022-07-01T09:39:07;27.40;59.90
39655;DHT22;25336;59.944;11.010;2022-07-01T09:41:36;27.40;59.50
39655;DHT22;25336;59.944;11.010;2022-07-01T09:44:08;27.40;59.50
39655;DHT22;25336;59.944;11.010;2022-07-01T09:46:34;27.40;59.60
39655;DHT22;25336;59.944;11.010;2022-07-01T09:48:59;27.30;59.60
39655;DHT22;25336;59.944;11.010;2022-07-01T09:51:26;27.30;59.50
39655;DHT22;25336;59.944;11.010;2022-07-01T09:53:52;27.30;59.50
39655;DHT22;25336;59.944;11.010;2022-07-01T09:56:20;27.20;59.60
39655;DHT22;25336;59.944;11.010;2022-07-01T09:58:48;27.30;59.40
39655;DHT22;25336;59.944;11.010;2022-07-01T10:01:14;27.20;59.10
39655;DHT22;25336;59.944;11.010;2022-07-01T10:03:41;27.20;58.90
39655;DHT22;25336;59.944;11.010;2022-07-01T10:08:55;27.20;59.50
39655;DHT22;25336;59.944;11.010;2022-07-01T10:14:03;27.30;59.20
39655;DHT22;25336;59.944;11.010;2022-07-01T10:16:30;27.40;59.30
39655;DHT22;25336;59.944;11.010;2022-07-01T10:18:57;27.40;58.50
39655;DHT22;25336;59.944;11.010;2022-07-01T10:21:30;26.60;57.80
39655;DHT22;25336;59.944;11.010;2022-07-01T10:24:13;27.40;58.70
39655;DHT22;25336;59.944;11.010;2022-07-01T10:26:40;27.30;58.60
39655;DHT22;25336;59.944;11.010;2022-07-01T10:31:52;27.30;58.10
39655;DHT22;25336;59.944;11.010;2022-07-01T10:34:19;27.30;59.00
39655;DHT22;25336;59.944;11.010;2022-07-01T10:36:44;27.30;58.40
39655;DHT22;25336;59.944;11.010;2022-07-01T10:39:12;27.30;58.00
39655;DHT22;25336;59.944;11.010;2022-07-01T10:44:17;27.20;58.10
39655;DHT22;25336;59.944;11.010;2022-07-01T10:47:06;27.20;58.40
39655;DHT22;25336;59.944;11.010;2022-07-01T10:52:05;27.20;59.10
39655;DHT22;25336;59.944;11.010;2022-07-01T10:59:42;27.30;58.60
39655;DHT22;25336;59.944;11.010;2022-07-01T11:02:12;27.40;58.90
39655;DHT22;25336;59.944;11.010;2022-07-01T11:04:38;27.50;58.50
39655;DHT22;25336;59.944;11.010;2022-07-01T11:07:04;28.20;59.10
39655;DHT22;25336;59.944;11.010;2022-07-01T11:09:29;27.60;58.70
39655;DHT22;25336;59.944;11.010;2022-07-01T11:11:55;27.60;58.40
39655;DHT22;25336;59.944;11.010;2022-07-01T11:14:21;27.70;58.10
39655;DHT22;25336;59.944;11.010;2022-07-01T11:16:47;27.70;57.80
39655;DHT22;25336;59.944;11.010;2022-07-01T11:19:12;27.70;57.80
39655;DHT22;25336;59.944;11.010;2022-07-01T11:21:38;27.70;58.20
39655;DHT22;25336;59.944;11.010;2022-07-01T11:24:08;27.70;57.80
39655;DHT22;25336;59.944;11.010;2022-07-01T11:26:34;27.70;57.90
39655;DHT22;25336;59.944;11.010;2022-07-01T11:29:00;27.70;57.90
39655;DHT22;25336;59.944;11.010;2022-07-01T11:31:30;27.80;57.80
39655;DHT22;25336;59.944;11.010;2022-07-01T11:33:55;27.80;57.70
39655;DHT22;25336;59.944;11.010;2022-07-01T11:36:21;27.80;57.90
39655;DHT22;25336;59.944;11.010;2022-07-01T11:39:05;27.80;57.80
39655;DHT22;25336;59.944;11.010;2022-07-01T11:41:59;27.80;57.50
39655;DHT22;25336;59.944;11.010;2022-07-01T11:46:57;27.70;57.30
39655;DHT22;25336;59.944;11.010;2022-07-01T11:49:22;27.70;57.60
39655;DHT22;25336;59.944;11.010;2022-07-01T11:52:16;27.60;57.50
39655;DHT22;25336;59.944;11.010;2022-07-01T11:54:44;27.60;57.40
39655;DHT22;25336;59.944;11.010;2022-07-01T11:57:22;27.60;57.40
39655;DHT22;25336;59.944;11.010;2022-07-01T11:59:49;27.50;57.60
39655;DHT22;25336;59.944;11.010;2022-07-01T12:02:17;27.50;58.50
39655;DHT22;25336;59.944;11.010;2022-07-01T12:04:44;27.50;58.90
39655;DHT22;25336;59.944;11.010;2022-07-01T12:07:12;27.50;57.80
39655;DHT22;25336;59.944;11.010;2022-07-01T12:09:38;27.50;58.00
39655;DHT22;25336;59.944;11.010;2022-07-01T12:12:05;27.60;58.30
39655;DHT22;25336;59.944;11.010;2022-07-01T12:14:32;27.60;57.80
39655;DHT22;25336;59.944;11.010;2022-07-01T12:17:00;27.70;57.80
39655;DHT22;25336;59.944;11.010;2022-07-01T12:19:46;27.70;57.80
39655;DHT22;25336;59.944;11.010;2022-07-01T12:22:18;27.80;58.30
39655;DHT22;25336;59.944;11.010;2022-07-01T12:24:49;27.80;57.40
39655;DHT22;25336;59.944;11.010;2022-07-01T12:27:16;27.90;57.60
39655;DHT22;25336;59.944;11.010;2022-07-01T12:32:21;27.90;57.20
39655;DHT22;25336;59.944;11.010;2022-07-01T12:34:58;27.90;57.60
39655;DHT22;25336;59.944;11.010;2022-07-01T12:37:37;27.90;57.00
39655;DHT22;25336;59.944;11.010;2022-07-01T12:40:24;28.00;56.50
39655;DHT22;25336;59.944;11.010;2022-07-01T12:42:50;28.00;56.50
39655;DHT22;25336;59.944;11.010;2022-07-01T12:45:24;28.00;56.70
39655;DHT22;25336;59.944;11.010;2022-07-01T12:47:51;28.00;56.50
39655;DHT22;25336;59.944;11.010;2022-07-01T12:55:21;28.20;56.70
39655;DHT22;25336;59.944;11.010;2022-07-01T12:57:51;28.30;56.80
39655;DHT22;25336;59.944;11.010;2022-07-01T13:00:19;28.40;56.60
39655;DHT22;25336;59.944;11.010;2022-07-01T13:02:45;28.40;56.50
39655;DHT22;25336;59.944;11.010;2022-07-01T13:05:11;28.50;56.00
39655;DHT22;25336;59.944;11.010;2022-07-01T13:07:37;28.60;55.50
39655;DHT22;25336;59.944;11.010;2022-07-01T13:10:03;29.60;55.80
39655;DHT22;25336;59.944;11.010;2022-07-01T13:12:30;28.70;55.30
39655;DHT22;25336;59.944;11.010;2022-07-01T13:14:55;28.80;54.80
39655;DHT22;25336;59.944;11.010;2022-07-01T13:17:26;28.80;54.80
39655;DHT22;25336;59.944;11.010;2022-07-01T13:19:52;28.80;54.70
39655;DHT22;25336;59.944;11.010;2022-07-01T13:22:17;28.80;54.50
39655;DHT22;25336;59.944;11.010;2022-07-01T13:24:43;28.90;54.80
39655;DHT22;25336;59.944;11.010;2022-07-01T13:27:09;28.90;54.30
39655;DHT22;25336;59.944;11.010;2022-07-01T13:29:35;29.00;54.10
39655;DHT22;25336;59.944;11.010;2022-07-01T13:32:02;29.00;54.00
39655;DHT22;25336;59.944;11.010;2022-07-01T13:34:28;29.00;54.00
39655;DHT22;25336;59.944;11.010;2022-07-01T13:36:53;29.00;53.50
39655;DHT22;25336;59.944;11.010;2022-07-01T13:39:19;28.90;54.00
39655;DHT22;25336;59.944;11.010;2022-07-01T13:41:45;28.90;53.60
39655;DHT22;25336;59.944;11.010;2022-07-01T13:44:10;28.80;53.40
39655;DHT22;25336;59.944;11.010;2022-07-01T13:46:36;28.80;53.50
39655;DHT22;25336;59.944;11.010;2022-07-01T13:49:03;28.70;53.90
39655;DHT22;25336;59.944;11.010;2022-07-01T13:51:29;28.60;54.00
39655;DHT22;25336;59.944;11.010;2022-07-01T13:53:55;28.60;54.10
39655;DHT22;25336;59.944;11.010;2022-07-01T13:56:22;28.50;54.20
39655;DHT22;25336;59.944;11.010;2022-07-01T13:58:48;28.40;54.50
39655;DHT22;25336;59.944;11.010;2022-07-01T14:01:20;28.40;55.00
39655;DHT22;25336;59.944;11.010;2022-07-01T14:03:48;28.40;55.10
39655;DHT22;25336;59.944;11.010;2022-07-01T14:06:14;28.50;55.70
39655;DHT22;25336;59.944;11.010;2022-07-01T14:08:40;28.50;55.70
39655;DHT22;25336;59.944;11.010;2022-07-01T14:11:06;28.60;55.30
39655;DHT22;25336;59.944;11.010;2022-07-01T14:13:31;28.60;55.40
39655;DHT22;25336;59.944;11.010;2022-07-01T14:15:57;28.60;55.00
39655;DHT22;25336;59.944;11.010;2022-07-01T14:18:22;28.70;55.00
39655;DHT22;25336;59.944;11.010;2022-07-01T14:20:48;28.60;55.20
39655;DHT22;25336;59.944;11.010;2022-07-01T14:23:14;28.60;55.20
39655;DHT22;25336;59.944;11.010;2022-07-01T14:25:39;28.60;55.20
39655;DHT22;25336;59.944;11.010;2022-07-01T14:28:06;28.60;55.40
39655;DHT22;25336;59.944;11.010;2022-07-01T14:30:33;28.50;55.40
39655;DHT22;25336;59.944;11.010;2022-07-01T14:32:59;28.60;55.80
39655;DHT22;25336;59.944;11.010;2022-07-01T14:35:26;28.60;55.90
39655;DHT22;25336;59.944;11.010;2022-07-01T14:37:52;28.60;55.80
39655;DHT22;25336;59.944;11.010;2022-07-01T14:40:18;28.60;56.10
39655;DHT22;25336;59.944;11.010;2022-07-01T14:42:44;28.60;55.70
39655;DHT22;25336;59.944;11.010;2022-07-01T14:45:11;28.60;56.20
39655;DHT22;25336;59.944;11.010;2022-07-01T14:47:39;28.60;55.30
39655;DHT22;25336;59.944;11.010;2022-07-01T14:50:05;28.60;55.20
39655;DHT22;25336;59.944;11.010;2022-07-01T14:52:31;28.60;55.00
39655;DHT22;25336;59.944;11.010;2022-07-01T14:54:57;28.60;54.90
39655;DHT22;25336;59.944;11.010;2022-07-01T14:57:22;28.60;54.60
39655;DHT22;25336;59.944;11.010;2022-07-01T14:59:48;28.60;54.60
39655;DHT22;25336;59.944;11.010;2022-07-01T15:02:14;28.60;54.80
39655;DHT22;25336;59.944;11.010;2022-07-01T15:04:40;28.60;55.10
39655;DHT22;25336;59.944;11.010;2022-07-01T15:07:06;28.60;55.10
39655;DHT22;25336;59.944;11.010;2022-07-01T15:09:32;28.60;55.00
39655;DHT22;25336;59.944;11.010;2022-07-01T15:11:58;28.70;54.80
39655;DHT22;25336;59.944;11.010;2022-07-01T15:14:24;28.70;54.60
39655;DHT22;25336;59.944;11.010;2022-07-01T15:16:50;28.80;54.40
39655;DHT22;25336;59.944;11.010;2022-07-01T15:19:15;28.80;54.50
39655;DHT22;25336;59.944;11.010;2022-07-01T15:21:41;28.90;54.50
39655;DHT22;25336;59.944;11.010;2022-07-01T15:24:07;28.90;54.30
39655;DHT22;25336;59.944;11.010;2022-07-01T15:26:32;29.00;54.20
39655;DHT22;25336;59.944;11.010;2022-07-01T15:28:58;29.10;55.00
39655;DHT22;25336;59.944;11.010;2022-07-01T15:31:24;29.10;54.80
39655;DHT22;25336;59.944;11.010;2022-07-01T15:33:51;29.20;54.50
39655;DHT22;25336;59.944;11.010;2022-07-01T15:36:19;29.20;54.10
39655;DHT22;25336;59.944;11.010;2022-07-01T15:38:44;29.30;54.30
39655;DHT22;25336;59.944;11.010;2022-07-01T15:41:11;29.30;53.90
39655;DHT22;25336;59.944;11.010;2022-07-01T15:43:37;29.30;53.90
39655;DHT22;25336;59.944;11.010;2022-07-01T15:46:06;29.40;53.70